• Join FlightAware (Why Join?)
  • Login
  • US Flag 
06:52AM EDT


 

Airport Tracker/Info


-or-


 

Live Flight TrackerFlight Track Log ✈ EJA831 ✈ 02-May-2014 ✈ KOAK - KSJC

Flight Track Log - Related Links

Times and Time Zones

All times are in EDT time to prevent confusion due to time zone crossing. See the EJA831 flight status page for this flight to view local times or setup timezone preferences in your user account.

Time Position Orientation Groundspeed Altitude Reporting Facility
EDT Latitude Longitude Course Direction KTS MPH feet Rate Location/Type
02:28PM 37.7500 -122.3000 147° Southeast 173 199 2,900  Level Northern Cal TRACON
02:29PM 37.7833 -122.3500 310° West 196 226 5,000 1,080 Climbing Northern Cal TRACON
02:30PM 37.8000 -122.4167 288° West 212 244 5,100  Climbing Northern Cal TRACON
02:31PM 37.8000 -122.4833 270° West 217 250 5,100  Level Northern Cal TRACON
02:32PM 37.7500 -122.5000 195° South 201 231 5,100  Level Northern Cal TRACON
02:33PM 37.4270 -121.9811 147° Southeast  Level Estimated
02:33PM 37.6833 -122.5000 180° South 214 246 5,100  Level Northern Cal TRACON
02:34PM 37.6333 -122.4500 142° Southeast 213 245 5,100  Level Northern Cal TRACON
02:35PM 37.5833 -122.4167 152° Southeast 205 236 5,100  Level Northern Cal TRACON
02:36PM 37.5167 -122.3833 158° South 233 268 5,100  Level Northern Cal TRACON
02:37PM 37.4667 -122.3333 142° Southeast 273 314 5,100  Level Northern Cal TRACON
02:38PM 37.4000 -122.2833 149° Southeast 264 304 5,100  Level Northern Cal TRACON
02:39PM 37.3500 -122.2167 133° Southeast 249 287 5,100  Level Northern Cal TRACON
02:40PM 37.3333 -122.1500 107° East 217 250 5,100  Level Northern Cal TRACON
02:41PM 37.3167 -122.0667 104° East 223 257 5,100 -240 Level Northern Cal TRACON
02:42PM 37.3000 -122.0000 107° East 215 247 4,700 -540 Descending Northern Cal TRACON
02:43PM 37.2833 -121.9333 107° East 193 222 4,100 -1,080 Descending Northern Cal TRACON
02:44PM 37.3000 -121.9000 58° Northeast 167 192 2,600 -1,740 Descending Northern Cal TRACON
02:44PM 37.3197 -121.8933 15° North 180 207 1,500 -1,680 Descending Oakland Center
02:45PM 37.3556 -121.9233 326° Northwest 144 166 100 -1,380 Descending Oakland Center